Time;durP1;ratioP1;P1;durP2;ratioP2;P2;SDS_P1;SDS_P2;PMS_P1;PMS_P2;Temp;Humidity;BMP_temperature;BMP_pressure;BME280_temperature;BME280_humidity;BME280_pressure;Samples;Min_cycle;Max_cycle;Signal;HPM_P1;HPM_P2
2019/11/07 00:02:21;;;;;;;3.8;2.5;;;;;;;;;;;;;
2019/11/07 00:04:47;;;;;;;3.3;2.3;;;;;;;;;;;;;
2019/11/07 00:07:12;;;;;;;4.3;2.2;;;;;;;;;;;;;
2019/11/07 00:09:37;;;;;;;3.9;2.6;;;;;;;;;;;;;
2019/11/07 00:12:02;;;;;;;3.8;2.4;;;;;;;;;;;;;
2019/11/07 00:14:27;;;;;;;3.8;2.3;;;;;;;;;;;;;
2019/11/07 00:16:53;;;;;;;4.2;2.2;;;;;;;;;;;;;
2019/11/07 00:19:17;;;;;;;5.1;2.4;;;;;;;;;;;;;
2019/11/07 00:21:42;;;;;;;4.1;2.1;;;;;;;;;;;;;
2019/11/07 00:24:07;;;;;;;4.3;2.3;;;;;;;;;;;;;
2019/11/07 00:26:33;;;;;;;4.3;2.3;;;;;;;;;;;;;
2019/11/07 00:28:58;;;;;;;3.5;2.3;;;;;;;;;;;;;
2019/11/07 00:31:23;;;;;;;3.9;2.5;;;;;;;;;;;;;
2019/11/07 00:33:48;;;;;;;4.6;2.5;;;;;;;;;;;;;
2019/11/07 00:36:13;;;;;;;3.8;2.2;;;;;;;;;;;;;
2019/11/07 00:38:38;;;;;;;3.2;2.2;;;;;;;;;;;;;
2019/11/07 00:41:03;;;;;;;3.6;2.2;;;;;;;;;;;;;
2019/11/07 00:43:29;;;;;;;3.6;2.2;;;;;;;;;;;;;
2019/11/07 00:45:53;;;;;;;3.5;2.5;;;;;;;;;;;;;
2019/11/07 00:48:19;;;;;;;4;2.3;;;;;;;;;;;;;
2019/11/07 00:50:44;;;;;;;3.4;2.2;;;;;;;;;;;;;
2019/11/07 00:53:09;;;;;;;4.4;2.2;;;;;;;;;;;;;
2019/11/07 00:55:34;;;;;;;3.4;2.4;;;;;;;;;;;;;
2019/11/07 00:57:59;;;;;;;4;2.4;;;;;;;;;;;;;
2019/11/07 01:00:24;;;;;;;3.6;2.2;;;;;;;;;;;;;
2019/11/07 01:02:49;;;;;;;3.1;2.1;;;;;;;;;;;;;
2019/11/07 01:05:14;;;;;;;2.9;2.1;;;;;;;;;;;;;
2019/11/07 01:07:39;;;;;;;4.4;2.3;;;;;;;;;;;;;
2019/11/07 01:10:05;;;;;;;3.8;2.3;;;;;;;;;;;;;
2019/11/07 01:12:30;;;;;;;5.7;2.3;;;;;;;;;;;;;
2019/11/07 01:14:56;;;;;;;3.7;2;;;;;;;;;;;;;
2019/11/07 01:17:53;;;;;;;3.6;2.2;;;;;;;;;;;;;
2019/11/07 01:19:45;;;;;;;3.5;2.2;;;;;;;;;;;;;
2019/11/07 01:22:10;;;;;;;3.3;2.1;;;;;;;;;;;;;
2019/11/07 01:24:35;;;;;;;3.3;2.3;;;;;;;;;;;;;
2019/11/07 01:27:00;;;;;;;2.5;1.9;;;;;;;;;;;;;
2019/11/07 01:29:25;;;;;;;3.7;2.3;;;;;;;;;;;;;
2019/11/07 01:31:51;;;;;;;4.7;2.7;;;;;;;;;;;;;
2019/11/07 01:34:16;;;;;;;2.8;2.2;;;;;;;;;;;;;
2019/11/07 01:36:41;;;;;;;3.9;2.3;;;;;;;;;;;;;
2019/11/07 01:39:06;;;;;;;3;2.2;;;;;;;;;;;;;
2019/11/07 01:41:31;;;;;;;3.7;2.6;;;;;;;;;;;;;
2019/11/07 01:43:56;;;;;;;4.5;2.6;;;;;;;;;;;;;
2019/11/07 01:46:21;;;;;;;4;2.1;;;;;;;;;;;;;
2019/11/07 01:48:46;;;;;;;3.4;2.2;;;;;;;;;;;;;
2019/11/07 01:51:11;;;;;;;3.2;2.3;;;;;;;;;;;;;
2019/11/07 01:53:37;;;;;;;3.2;2.3;;;;;;;;;;;;;
2019/11/07 01:56:02;;;;;;;2.5;2.2;;;;;;;;;;;;;
2019/11/07 01:58:27;;;;;;;3;2.4;;;;;;;;;;;;;
2019/11/07 02:00:52;;;;;;;4.5;2.5;;;;;;;;;;;;;
2019/11/07 02:03:17;;;;;;;4;2.7;;;;;;;;;;;;;
2019/11/07 02:05:42;;;;;;;2.9;2.6;;;;;;;;;;;;;
2019/11/07 02:08:08;;;;;;;3;2.4;;;;;;;;;;;;;
2019/11/07 02:10:32;;;;;;;4.9;2.6;;;;;;;;;;;;;
2019/11/07 02:12:58;;;;;;;3.1;2.6;;;;;;;;;;;;;
2019/11/07 02:15:23;;;;;;;4;2.8;;;;;;;;;;;;;
2019/11/07 02:17:48;;;;;;;5;2.8;;;;;;;;;;;;;
2019/11/07 02:20:13;;;;;;;4.6;3;;;;;;;;;;;;;
2019/11/07 02:22:38;;;;;;;4.2;3;;;;;;;;;;;;;
2019/11/07 02:25:03;;;;;;;5;2.9;;;;;;;;;;;;;
2019/11/07 02:27:28;;;;;;;3.9;2.7;;;;;;;;;;;;;
2019/11/07 02:29:53;;;;;;;5.1;3.1;;;;;;;;;;;;;
2019/11/07 02:32:18;;;;;;;4.6;3.5;;;;;;;;;;;;;
2019/11/07 02:34:43;;;;;;;3.5;3.1;;;;;;;;;;;;;
2019/11/07 02:37:09;;;;;;;4.5;2.9;;;;;;;;;;;;;
2019/11/07 02:39:34;;;;;;;6;3.4;;;;;;;;;;;;;
2019/11/07 02:41:59;;;;;;;4.3;2.8;;;;;;;;;;;;;
2019/11/07 02:44:24;;;;;;;5.6;3.2;;;;;;;;;;;;;
2019/11/07 02:46:49;;;;;;;3.2;2.5;;;;;;;;;;;;;
2019/11/07 02:49:14;;;;;;;3.8;2.7;;;;;;;;;;;;;
2019/11/07 02:51:39;;;;;;;5.6;2.8;;;;;;;;;;;;;
2019/11/07 02:54:04;;;;;;;3.5;2.7;;;;;;;;;;;;;
2019/11/07 02:56:29;;;;;;;4.8;2.7;;;;;;;;;;;;;
2019/11/07 02:58:54;;;;;;;5;2.9;;;;;;;;;;;;;
2019/11/07 03:01:19;;;;;;;4.1;2.4;;;;;;;;;;;;;
2019/11/07 03:03:45;;;;;;;3.9;2.9;;;;;;;;;;;;;
2019/11/07 03:06:10;;;;;;;3.6;2.9;;;;;;;;;;;;;
2019/11/07 03:08:35;;;;;;;3.8;2.9;;;;;;;;;;;;;
2019/11/07 03:11:00;;;;;;;4.1;2.9;;;;;;;;;;;;;
2019/11/07 03:13:25;;;;;;;3.6;2.5;;;;;;;;;;;;;
2019/11/07 03:15:50;;;;;;;4.4;2.9;;;;;;;;;;;;;
2019/11/07 03:18:15;;;;;;;4.2;2.7;;;;;;;;;;;;;
2019/11/07 03:20:40;;;;;;;5;2.8;;;;;;;;;;;;;
2019/11/07 03:23:05;;;;;;;4.1;2.9;;;;;;;;;;;;;
2019/11/07 03:25:31;;;;;;;3.4;2.9;;;;;;;;;;;;;
2019/11/07 03:27:56;;;;;;;3.6;2.7;;;;;;;;;;;;;
2019/11/07 03:30:21;;;;;;;4.3;2.8;;;;;;;;;;;;;
2019/11/07 03:32:46;;;;;;;4.2;3;;;;;;;;;;;;;
2019/11/07 03:35:11;;;;;;;5.8;3.9;;;;;;;;;;;;;
2019/11/07 03:37:36;;;;;;;4.4;2.9;;;;;;;;;;;;;
2019/11/07 03:40:01;;;;;;;3;2.6;;;;;;;;;;;;;
2019/11/07 03:42:26;;;;;;;4.1;2.5;;;;;;;;;;;;;
2019/11/07 03:44:51;;;;;;;3.9;2.7;;;;;;;;;;;;;
2019/11/07 03:47:17;;;;;;;4.6;2.8;;;;;;;;;;;;;
2019/11/07 03:49:42;;;;;;;5.4;2.8;;;;;;;;;;;;;
2019/11/07 03:52:07;;;;;;;4.3;3.1;;;;;;;;;;;;;
2019/11/07 03:54:32;;;;;;;4.9;3.3;;;;;;;;;;;;;
2019/11/07 03:56:57;;;;;;;4.8;3.2;;;;;;;;;;;;;
2019/11/07 03:59:22;;;;;;;5.4;3.2;;;;;;;;;;;;;
2019/11/07 04:02:35;;;;;;;7;3.4;;;;;;;6.56;97.5;989.2136;;;;
2019/11/07 04:05:00;;;;;;;4.8;3.2;;;;;;;6.63;97.32324;989.1992;;;;
2019/11/07 04:07:25;;;;;;;4.6;3.1;;;;;;;6.57;97.76465;989.1968;;;;
2019/11/07 04:09:50;;;;;;;5.9;3.3;;;;;;;6.64;97.65625;989.1891;;;;
2019/11/07 04:12:15;;;;;;;3.5;3.2;;;;;;;6.77;97.1748;989.1342;;;;
2019/11/07 04:14:40;;;;;;;3.7;3.1;;;;;;;6.83;96.67578;989.0834;;;;
2019/11/07 04:17:05;;;;;;;5.1;3.3;;;;;;;6.77;96.58398;989.0861;;;;
2019/11/07 04:19:31;;;;;;;5.5;3.3;;;;;;;6.7;96.72754;989.0865;;;;
2019/11/07 04:21:56;;;;;;;6.8;3.4;;;;;;;6.72;96.64063;989.0277;;;;
2019/11/07 04:24:21;;;;;;;6.1;3.3;;;;;;;6.79;96.69238;989.0044;;;;
2019/11/07 04:26:46;;;;;;;5.3;3.3;;;;;;;6.82;96.45801;989.0245;;;;
2019/11/07 04:29:11;;;;;;;4.3;3.1;;;;;;;6.86;96.6709;988.9714;;;;
2019/11/07 04:31:36;;;;;;;4.5;3.3;;;;;;;6.97;96.59473;988.9483;;;;
2019/11/07 04:34:01;;;;;;;4;3.5;;;;;;;7.01;96.45508;988.883;;;;
2019/11/07 04:36:26;;;;;;;4.7;3.2;;;;;;;7.11;95.95508;988.8367;;;;
2019/11/07 04:38:52;;;;;;;3.4;2.6;;;;;;;7.16;95.54688;988.8608;;;;
2019/11/07 04:41:18;;;;;;;3.4;2.8;;;;;;;7.29;95.06445;988.8735;;;;
2019/11/07 04:43:43;;;;;;;5.6;2.8;;;;;;;7.4;93.87207;988.8337;;;;
2019/11/07 04:46:08;;;;;;;3.6;2.4;;;;;;;7.48;93.36719;988.8879;;;;
2019/11/07 04:48:33;;;;;;;3;2.4;;;;;;;7.51;93.2627;988.9053;;;;
2019/11/07 04:50:59;;;;;;;3;2.2;;;;;;;7.59;92.45996;988.912;;;;
2019/11/07 04:53:24;;;;;;;2.5;1.9;;;;;;;7.72;91.52246;988.8552;;;;
2019/11/07 04:55:49;;;;;;;4.8;2.1;;;;;;;7.77;91.06738;988.764;;;;
2019/11/07 04:58:14;;;;;;;2.4;2;;;;;;;7.73;90.96484;988.6909;;;;
2019/11/07 05:00:39;;;;;;;4.4;2.1;;;;;;;7.69;91.17188;988.6248;;;;
2019/11/07 05:03:04;;;;;;;2.8;2;;;;;;;7.54;91.49512;988.5969;;;;
2019/11/07 05:05:29;;;;;;;2.8;2;;;;;;;7.54;91.33398;988.577;;;;
2019/11/07 05:07:55;;;;;;;2.6;2;;;;;;;7.58;90.99121;988.6175;;;;
2019/11/07 05:10:20;;;;;;;2.1;1.7;;;;;;;7.63;90.52344;988.6092;;;;
2019/11/07 05:12:45;;;;;;;4.1;1.8;;;;;;;7.67;90.56641;988.5757;;;;
2019/11/07 05:15:10;;;;;;;2.9;1.9;;;;;;;7.69;90.08398;988.6133;;;;
2019/11/07 05:17:35;;;;;;;2.1;1.7;;;;;;;7.7;89.71973;988.4897;;;;
2019/11/07 05:20:00;;;;;;;2.4;2;;;;;;;7.68;89.78418;988.4117;;;;
2019/11/07 05:22:25;;;;;;;2.2;1.8;;;;;;;7.65;89.80078;988.493;;;;
2019/11/07 05:24:50;;;;;;;1.7;1.6;;;;;;;7.71;89.9834;988.4675;;;;
2019/11/07 05:27:15;;;;;;;2.4;1.9;;;;;;;7.78;90.25977;988.4565;;;;
2019/11/07 05:29:40;;;;;;;2.7;1.8;;;;;;;7.65;89.78809;988.4783;;;;
2019/11/07 05:32:43;;;;;;;2.7;1.9;;;;;;;7.7;88.98047;988.4352;;;;
2019/11/07 05:34:31;;;;;;;2.8;1.9;;;;;;;7.67;89.21387;988.3862;;;;
2019/11/07 05:36:56;;;;;;;2.6;1.8;;;;;;;7.59;89.43555;988.4042;;;;
2019/11/07 05:39:21;;;;;;;2.3;1.7;;;;;;;7.55;89.86914;988.4377;;;;
2019/11/07 05:41:46;;;;;;;2.5;1.9;;;;;;;7.53;89.72949;988.4465;;;;
2019/11/07 05:44:11;;;;;;;5.1;2.2;;;;;;;7.37;90.87891;988.3748;;;;
2019/11/07 05:46:36;;;;;;;2.4;1.9;;;;;;;7.35;90.69336;988.3797;;;;
2019/11/07 05:49:01;;;;;;;3.7;2.1;;;;;;;7.28;91.19922;988.3333;;;;
2019/11/07 05:51:26;;;;;;;2.4;2.2;;;;;;;7.22;91.32422;988.3153;;;;
2019/11/07 05:53:51;;;;;;;3.3;2.4;;;;;;;7.13;91.62305;988.3013;;;;
2019/11/07 05:56:17;;;;;;;2.6;2.4;;;;;;;7.07;91.79102;988.252;;;;
2019/11/07 05:58:42;;;;;;;3.5;2.3;;;;;;;6.99;92.03516;988.1901;;;;
2019/11/07 06:01:07;;;;;;;3.5;2.5;;;;;;;6.9;92.50391;988.1803;;;;
2019/11/07 06:03:32;;;;;;;3.2;2.7;;;;;;;6.95;92.79688;988.1986;;;;
2019/11/07 06:05:57;;;;;;;3.7;2.3;;;;;;;6.93;92.55664;988.1331;;;;
2019/11/07 06:08:23;;;;;;;4;2.7;;;;;;;7.02;92.34668;988.0773;;;;
2019/11/07 06:10:48;;;;;;;3.3;2.5;;;;;;;7.02;92.00879;988.0222;;;;
2019/11/07 06:13:13;;;;;;;3.3;2.1;;;;;;;7.03;91.95313;988.0612;;;;
2019/11/07 06:15:38;;;;;;;2.8;2.5;;;;;;;7.06;91.62988;988.0372;;;;
2019/11/07 06:18:03;;;;;;;4;2.9;;;;;;;7.02;91.73438;988.1311;;;;
2019/11/07 06:20:28;;;;;;;5.2;2.9;;;;;;;7.05;91.61719;988.1119;;;;
2019/11/07 06:22:53;;;;;;;6.5;2.8;;;;;;;7.08;91.38574;988.1231;;;;
2019/11/07 06:25:24;;;;;;;3.3;2.8;;;;;;;7.12;91.01855;988.0689;;;;
2019/11/07 06:27:48;;;;;;;4.5;2.6;;;;;;;7.12;91.05078;988.0911;;;;
2019/11/07 06:30:13;;;;;;;4;2.4;;;;;;;7.15;90.96973;988.0674;;;;
2019/11/07 06:32:38;;;;;;;5;2.8;;;;;;;7.2;90.65918;988.0453;;;;
2019/11/07 06:35:03;;;;;;;5.5;2.8;;;;;;;7.28;90.41504;988.0131;;;;
2019/11/07 06:37:28;;;;;;;6.5;2.8;;;;;;;7.33;90.05371;988.033;;;;
2019/11/07 06:39:53;;;;;;;5.7;3.1;;;;;;;7.44;89.71191;988.025;;;;
2019/11/07 06:42:18;;;;;;;5.6;2.9;;;;;;;7.43;89.82227;988.0115;;;;
2019/11/07 06:44:44;;;;;;;4.2;2.9;;;;;;;7.58;89.51367;988.0279;;;;
2019/11/07 06:47:09;;;;;;;4.9;3.3;;;;;;;7.61;88.75684;987.9634;;;;
2019/11/07 06:49:34;;;;;;;6.6;3.5;;;;;;;7.62;88.64746;987.9372;;;;
2019/11/07 06:51:59;;;;;;;5.4;3.1;;;;;;;7.66;88.54102;987.9622;;;;
2019/11/07 06:54:24;;;;;;;5.7;3.1;;;;;;;7.63;88.74902;987.9314;;;;
2019/11/07 06:56:49;;;;;;;4.9;3.3;;;;;;;7.67;88.64453;987.8544;;;;
2019/11/07 06:59:14;;;;;;;3.8;3.1;;;;;;;7.68;88.57715;987.8887;;;;
2019/11/07 07:01:39;;;;;;;4.2;3;;;;;;;7.64;88.59375;987.7994;;;;
2019/11/07 07:04:04;;;;;;;7.1;5.3;;;;;;;7.71;88.56152;987.7706;;;;
2019/11/07 07:06:29;;;;;;;4.9;3.1;;;;;;;7.65;88.58203;987.7242;;;;
2019/11/07 07:08:54;;;;;;;5.2;3;;;;;;;7.69;88.22949;987.7246;;;;
2019/11/07 07:11:19;;;;;;;3.8;3;;;;;;;7.82;88.02832;987.7173;;;;
2019/11/07 07:13:44;;;;;;;5.2;3.5;;;;;;;7.9;87.6123;987.7491;;;;
2019/11/07 07:16:09;;;;;;;4.2;2.9;;;;;;;7.97;87.48828;987.6903;;;;
2019/11/07 07:18:35;;;;;;;4.9;2.9;;;;;;;8.07;86.96094;987.7003;;;;
2019/11/07 07:21:00;;;;;;;4.7;2.9;;;;;;;8.18;86.33496;987.7168;;;;
2019/11/07 07:23:25;;;;;;;3.1;2.7;;;;;;;8.31;85.31641;987.6842;;;;
2019/11/07 07:25:51;;;;;;;4.2;2.7;;;;;;;8.48;84.7793;987.6428;;;;
2019/11/07 07:28:16;;;;;;;5.1;2.8;;;;;;;8.68;84.23633;987.6074;;;;
2019/11/07 07:30:41;;;;;;;4.8;2.7;;;;;;;8.77;83.92578;987.5861;;;;
2019/11/07 07:33:06;;;;;;;5;2.8;;;;;;;8.93;83.58887;987.6359;;;;
2019/11/07 07:35:31;;;;;;;5.3;2.6;;;;;;;9.21;81.97852;987.6216;;;;
2019/11/07 07:37:56;;;;;;;7.3;2.7;;;;;;;9.19;81.63184;987.5967;;;;
2019/11/07 07:40:21;;;;;;;4.8;2.7;;;;;;;9.27;81.25781;987.5609;;;;
2019/11/07 07:42:47;;;;;;;4.1;2.9;;;;;;;9.36;80.83105;987.4751;;;;
2019/11/07 07:45:12;;;;;;;5.8;2.7;;;;;;;9.36;80.58008;987.4886;;;;
2019/11/07 07:47:37;;;;;;;6.5;2.7;;;;;;;9.49;80.29492;987.5076;;;;
2019/11/07 07:50:02;;;;;;;5.7;2.8;;;;;;;9.6;79.67578;987.5347;;;;
2019/11/07 07:52:27;;;;;;;4.4;2.3;;;;;;;9.74;78.95996;987.4637;;;;
2019/11/07 07:54:52;;;;;;;4.1;2.3;;;;;;;10.09;77.61523;987.4693;;;;
2019/11/07 07:57:17;;;;;;;3.5;2.4;;;;;;;10.33;77.16895;987.4069;;;;
2019/11/07 07:59:42;;;;;;;5.7;3.4;;;;;;;11.02;75.1123;987.4539;;;;
2019/11/07 08:02:08;;;;;;;3.7;2.3;;;;;;;12.35;69.27344;987.4414;;;;
2019/11/07 08:04:33;;;;;;;3.2;2;;;;;;;13.63;64.25586;987.5197;;;;
2019/11/07 08:06:58;;;;;;;4.4;1.9;;;;;;;14.65;59.97949;987.4927;;;;
2019/11/07 08:09:23;;;;;;;5.2;2;;;;;;;15.14;57.27051;987.5016;;;;
2019/11/07 08:11:48;;;;;;;4.2;1.9;;;;;;;14.41;58.22559;987.4695;;;;
2019/11/07 08:14:13;;;;;;;3.8;2.1;;;;;;;13.94;59.63965;987.4445;;;;
2019/11/07 08:16:38;;;;;;;4.3;2;;;;;;;13.3;61.72949;987.4106;;;;
2019/11/07 08:19:03;;;;;;;2.4;1.9;;;;;;;12.76;63.73535;987.4258;;;;
2019/11/07 08:21:28;;;;;;;4.4;2.2;;;;;;;12.74;63.91699;987.4274;;;;
2019/11/07 08:23:53;;;;;;;3.3;2.1;;;;;;;12.45;64.28711;987.4169;;;;
2019/11/07 08:26:18;;;;;;;4.5;2.1;;;;;;;12.48;64.67188;987.3217;;;;
2019/11/07 08:28:44;;;;;;;3.6;2.2;;;;;;;12.15;65.15137;987.2631;;;;
2019/11/07 08:31:09;;;;;;;3.6;2;;;;;;;12.05;65.38867;987.1976;;;;
2019/11/07 08:33:34;;;;;;;2.5;1.8;;;;;;;11.95;65.69434;987.1937;;;;
2019/11/07 08:35:59;;;;;;;2.5;1.7;;;;;;;11.82;66.27344;987.1459;;;;
2019/11/07 08:38:24;;;;;;;3.7;2.1;;;;;;;11.91;66.56348;987.0666;;;;
2019/11/07 08:40:49;;;;;;;5.6;2.2;;;;;;;11.85;68.0918;987.0176;;;;
2019/11/07 08:43:14;;;;;;;3.4;2.1;;;;;;;11.83;68.13477;986.9383;;;;
2019/11/07 08:45:40;;;;;;;4.8;2.2;;;;;;;11.61;69.20313;986.8918;;;;
2019/11/07 08:48:04;;;;;;;3.4;2.1;;;;;;;11.62;69.40918;986.8705;;;;
2019/11/07 08:50:30;;;;;;;2.4;1.7;;;;;;;11.97;67.20313;986.923;;;;
2019/11/07 08:52:55;;;;;;;3.3;1.7;;;;;;;11.84;66.67871;986.9073;;;;
2019/11/07 08:55:20;;;;;;;5.7;2;;;;;;;11.89;66.67383;986.9352;;;;
2019/11/07 08:57:46;;;;;;;3.4;1.8;;;;;;;12;66.7373;986.9595;;;;
2019/11/07 09:00:11;;;;;;;5;2.7;;;;;;;12.15;66.74805;987.0004;;;;
2019/11/07 09:02:36;;;;;;;5.1;2;;;;;;;12.01;66.25684;987.0795;;;;
2019/11/07 09:05:01;;;;;;;2.5;1.6;;;;;;;12.01;65.99219;987.0474;;;;
2019/11/07 09:07:26;;;;;;;4.6;2;;;;;;;12.04;66.43262;987.0704;;;;
2019/11/07 09:09:51;;;;;;;3.3;1.9;;;;;;;12.15;65.8291;987.0591;;;;
2019/11/07 09:12:16;;;;;;;2.9;1.8;;;;;;;12.24;65.33887;987.0656;;;;
2019/11/07 09:14:42;;;;;;;3;1.9;;;;;;;12.28;65.08984;987.0659;;;;
2019/11/07 09:17:06;;;;;;;4.4;2.2;;;;;;;12.47;64.60156;987.0809;;;;
2019/11/07 09:19:31;;;;;;;3.6;1.9;;;;;;;12.66;64.2041;987.1197;;;;
2019/11/07 09:21:57;;;;;;;4.2;1.7;;;;;;;12.76;63.58594;987.116;;;;
2019/11/07 09:24:22;;;;;;;2.7;1.5;;;;;;;13.13;62.21191;987.1119;;;;
2019/11/07 09:26:47;;;;;;;2.2;1.6;;;;;;;13.15;60.89063;987.1397;;;;
2019/11/07 09:29:13;;;;;;;5.5;1.9;;;;;;;13.29;61.24414;987.1564;;;;
2019/11/07 09:31:38;;;;;;;4;1.7;;;;;;;13.22;61.14258;987.1873;;;;
2019/11/07 09:34:03;;;;;;;2.8;1.4;;;;;;;13.2;61.08105;987.2668;;;;
2019/11/07 09:36:28;;;;;;;2.2;1.4;;;;;;;13.25;61.73438;987.2614;;;;
2019/11/07 09:38:54;;;;;;;2.4;1.6;;;;;;;13.72;60.49805;987.2787;;;;
2019/11/07 09:41:19;;;;;;;1.9;1.5;;;;;;;13.62;60.5293;987.1967;;;;
2019/11/07 09:43:44;;;;;;;1.4;1.2;;;;;;;13.61;59.67578;987.2114;;;;
2019/11/07 09:46:12;;;;;;;2.5;1.7;;;;;;;13.62;59.7002;987.207;;;;
2019/11/07 09:48:34;;;;;;;3.2;1.3;;;;;;;13.6;59.58105;987.1398;;;;
2019/11/07 09:51:00;;;;;;;2.4;1.4;;;;;;;13.62;60.22949;987.1355;;;;
2019/11/07 09:53:25;;;;;;;2.6;1.5;;;;;;;13.8;60.2207;987.1683;;;;
2019/11/07 09:55:50;;;;;;;2.4;1.3;;;;;;;14.03;60.48242;987.1755;;;;
2019/11/07 09:58:15;;;;;;;2;1.3;;;;;;;13.85;59.7666;987.1333;;;;
2019/11/07 10:00:46;;;;;;;2.9;1.5;;;;;;;13.71;60.20703;987.1426;;;;
2019/11/07 10:03:06;;;;;;;3.4;1.6;;;;;;;13.57;61.28516;987.1867;;;;
2019/11/07 10:05:31;;;;;;;3.1;1.7;;;;;;;13.44;63.09668;987.3472;;;;
2019/11/07 10:07:56;;;;;;;2.9;1.8;;;;;;;13.02;64.57813;987.3222;;;;
2019/11/07 10:10:22;;;;;;;4.4;1.5;;;;;;;13.18;65.09766;987.3758;;;;
2019/11/07 10:12:48;;;;;;;2.5;1.5;;;;;;;12.99;68.25879;987.405;;;;
2019/11/07 10:15:12;;;;;;;2.6;1.6;;;;;;;12.88;66.45801;987.5148;;;;
2019/11/07 10:17:37;;;;;;;2.8;1.7;;;;;;;13.06;66.16406;987.5187;;;;
2019/11/07 10:20:02;;;;;;;2.9;1.8;;;;;;;12.52;64.24023;987.6383;;;;
2019/11/07 10:22:27;;;;;;;1.7;1.1;;;;;;;12.12;66.90332;987.6096;;;;
2019/11/07 10:24:52;;;;;;;1.7;1.1;;;;;;;11.87;67.07129;987.6217;;;;
2019/11/07 10:27:17;;;;;;;1.1;1;;;;;;;11.51;69.38086;987.7142;;;;
2019/11/07 10:29:43;;;;;;;1.8;1;;;;;;;11.45;69.63477;987.7656;;;;
2019/11/07 10:32:08;;;;;;;1.4;1.1;;;;;;;11.3;71.1709;987.7428;;;;
2019/11/07 10:34:35;;;;;;;1.8;1.3;;;;;;;11.06;73.4248;987.8425;;;;
2019/11/07 10:36:59;;;;;;;1.9;1.5;;;;;;;10.79;75.37109;987.834;;;;
2019/11/07 10:39:24;;;;;;;1.6;1.4;;;;;;;10.66;76.4248;987.7769;;;;
2019/11/07 10:41:49;;;;;;;1.5;1.4;;;;;;;10.52;78.53027;987.8558;;;;
2019/11/07 10:44:14;;;;;;;2.5;1.6;;;;;;;10.59;79.02246;987.7986;;;;
2019/11/07 10:46:39;;;;;;;3.1;1.6;;;;;;;10.53;80.6709;987.8137;;;;
2019/11/07 10:49:04;;;;;;;3.2;2.2;;;;;;;10.71;81.67871;987.7675;;;;
2019/11/07 10:51:29;;;;;;;3.6;2.1;;;;;;;10.82;81.17188;987.7817;;;;
2019/11/07 10:53:56;;;;;;;3.1;1.7;;;;;;;10.73;80.77832;987.7856;;;;
2019/11/07 10:56:19;;;;;;;3.2;1.9;;;;;;;10.65;82.98535;987.7619;;;;
2019/11/07 10:58:44;;;;;;;2.3;2;;;;;;;10.89;80.96777;987.7896;;;;
2019/11/07 11:01:10;;;;;;;2.1;1.8;;;;;;;10.92;82.0957;987.6769;;;;
2019/11/07 11:03:36;;;;;;;3.2;2.4;;;;;;;11.02;80.32617;987.7601;;;;
2019/11/07 11:06:01;;;;;;;3.5;2.4;;;;;;;11.34;81.08789;987.532;;;;
2019/11/07 11:08:26;;;;;;;2.6;1.7;;;;;;;11.19;77.89355;987.5367;;;;
2019/11/07 11:10:51;;;;;;;2.6;1.7;;;;;;;11.06;77.92773;987.4875;;;;
2019/11/07 11:13:16;;;;;;;2.2;1.6;;;;;;;11.08;78.75781;987.502;;;;
2019/11/07 11:15:41;;;;;;;2;1.6;;;;;;;11.12;77.97363;987.4369;;;;
2019/11/07 11:18:06;;;;;;;2.7;1.7;;;;;;;11.07;77.52832;987.4749;;;;
2019/11/07 11:20:32;;;;;;;2.6;1.7;;;;;;;11.19;76.11816;987.4658;;;;
2019/11/07 11:22:57;;;;;;;4;1.6;;;;;;;11.27;75.92383;987.4574;;;;
2019/11/07 11:25:22;;;;;;;2.1;1.5;;;;;;;11.2;75.0166;987.3994;;;;
2019/11/07 11:27:47;;;;;;;1.6;1.3;;;;;;;11.26;75.66992;987.4329;;;;
2019/11/07 11:30:13;;;;;;;1.5;1.2;;;;;;;11.24;74.7041;987.3873;;;;
2019/11/07 11:32:38;;;;;;;3.1;1.5;;;;;;;11.26;75.0752;987.3748;;;;
2019/11/07 11:35:03;;;;;;;2.4;1.5;;;;;;;11.33;75.57813;987.4047;;;;
2019/11/07 11:37:28;;;;;;;3.6;1.6;;;;;;;11.39;75.86621;987.403;;;;
2019/11/07 11:39:53;;;;;;;1.6;1.4;;;;;;;11.42;74.24121;987.3636;;;;
2019/11/07 11:42:19;;;;;;;2.9;1.5;;;;;;;11.52;76.58789;987.437;;;;
2019/11/07 11:44:44;;;;;;;2.9;1.3;;;;;;;11.94;76.14551;987.4168;;;;
2019/11/07 11:47:09;;;;;;;2.2;1.2;;;;;;;11.97;73.96777;987.3873;;;;
2019/11/07 11:49:34;;;;;;;3;2;;;;;;;12.25;74.17676;987.4398;;;;
2019/11/07 11:52:00;;;;;;;2.5;1.7;;;;;;;12.23;74.50488;987.4366;;;;
2019/11/07 11:54:25;;;;;;;2.5;1.6;;;;;;;12.44;73.92285;987.4495;;;;
2019/11/07 11:56:50;;;;;;;1.8;1.2;;;;;;;11.98;72.83301;987.3384;;;;
2019/11/07 11:59:16;;;;;;;1.4;1;;;;;;;11.64;71.79004;987.3074;;;;
2019/11/07 12:01:42;;;;;;;1.4;0.9;;;;;;;11.63;72.76172;987.3003;;;;
2019/11/07 12:04:15;;;;;;;1.1;0.9;;;;;;;11.51;72.53613;987.2587;;;;
2019/11/07 12:06:53;;;;;;;1.3;0.9;;;;;;;11.45;72.75488;987.2581;;;;
2019/11/07 12:09:31;;;;;;;1.3;0.8;;;;;;;11.32;73.9834;987.2957;;;;
2019/11/07 12:12:09;;;;;;;1.3;0.9;;;;;;;11.52;73.49023;987.3293;;;;
2019/11/07 12:14:47;;;;;;;1.4;1;;;;;;;11.63;74.19629;987.3816;;;;
2019/11/07 12:17:25;;;;;;;1.1;1;;;;;;;11.72;73.22461;987.403;;;;
2019/11/07 12:20:04;;;;;;;2;1.1;;;;;;;11.77;73.03906;987.4207;;;;
2019/11/07 12:22:42;;;;;;;1.1;0.8;;;;;;;11.81;74.1123;987.4867;;;;
2019/11/07 12:25:21;;;;;;;1.9;1.1;;;;;;;11.91;72.55762;987.4586;;;;
2019/11/07 12:27:59;;;;;;;1.2;0.9;;;;;;;11.58;76.47266;987.4353;;;;
2019/11/07 12:30:36;;;;;;;3.8;1.4;;;;;;;11.61;76.30371;987.4133;;;;
2019/11/07 12:33:15;;;;;;;3.7;1.3;;;;;;;11.83;73.95703;987.3617;;;;
2019/11/07 12:35:54;;;;;;;2.8;1.4;;;;;;;11.88;74.82715;987.2862;;;;
2019/11/07 12:38:34;;;;;;;3.1;1.3;;;;;;;11.86;75.12109;987.3596;;;;
2019/11/07 12:41:16;;;;;;;2.2;1.2;;;;;;;11.97;75.62207;987.3406;;;;
2019/11/07 12:43:55;;;;;;;2.6;1.5;;;;;;;11.86;76.12012;987.4409;;;;
2019/11/07 12:46:33;;;;;;;2.4;1.4;;;;;;;11.93;74.89258;987.3521;;;;
2019/11/07 12:49:11;;;;;;;3;1.5;;;;;;;11.84;75.41602;987.2885;;;;
2019/11/07 12:51:48;;;;;;;2.6;1.2;;;;;;;11.91;75.20898;987.3567;;;;
2019/11/07 12:54:13;;;;;;;1.6;1.2;;;;;;;12.04;72.72852;987.3054;;;;
2019/11/07 12:56:38;;;;;;;2.4;1;;;;;;;12.09;73.34668;987.3745;;;;
2019/11/07 12:59:04;;;;;;;1.8;1;;;;;;;12.4;72.7998;987.4189;;;;
2019/11/07 13:01:29;;;;;;;1.2;1;;;;;;;12.4;72.30566;987.4606;;;;
2019/11/07 13:03:54;;;;;;;1.4;1;;;;;;;12.38;71.17578;987.4756;;;;
2019/11/07 13:06:19;;;;;;;1.6;1.1;;;;;;;12.33;72.9707;987.4947;;;;
2019/11/07 13:08:44;;;;;;;1.2;0.8;;;;;;;12.35;72.37695;987.4584;;;;
2019/11/07 13:11:09;;;;;;;1.5;0.7;;;;;;;12.23;71.63184;987.4959;;;;
2019/11/07 13:13:34;;;;;;;1.3;0.6;;;;;;;12.2;71.43359;987.5402;;;;
2019/11/07 13:15:59;;;;;;;1;0.7;;;;;;;12.09;70.95508;987.5167;;;;
2019/11/07 13:18:24;;;;;;;1.3;0.8;;;;;;;12.18;71.15527;987.5381;;;;
2019/11/07 13:20:49;;;;;;;1.8;0.8;;;;;;;12.23;71.17383;987.5452;;;;
2019/11/07 13:23:14;;;;;;;1.8;0.8;;;;;;;12.27;70.94043;987.5958;;;;
2019/11/07 13:25:40;;;;;;;1.5;1;;;;;;;12.46;71.37305;987.6817;;;;
2019/11/07 13:28:05;;;;;;;1.2;0.7;;;;;;;12.74;69.49805;987.6445;;;;
2019/11/07 13:30:30;;;;;;;0.9;0.8;;;;;;;12.71;70.29688;987.658;;;;
2019/11/07 13:32:55;;;;;;;0.9;0.8;;;;;;;12.78;69.53906;987.6872;;;;
2019/11/07 13:35:20;;;;;;;0.9;0.8;;;;;;;12.91;68.17871;987.7609;;;;
2019/11/07 13:37:45;;;;;;;1.8;0.9;;;;;;;12.72;68.60742;987.8064;;;;
2019/11/07 13:40:10;;;;;;;1;0.8;;;;;;;12.73;69.18555;987.8592;;;;
2019/11/07 13:42:35;;;;;;;2.1;1.2;;;;;;;12.87;68.82715;987.8687;;;;
2019/11/07 13:45:01;;;;;;;1.9;1.1;;;;;;;12.83;69.35059;987.9189;;;;
2019/11/07 13:47:25;;;;;;;1.4;0.9;;;;;;;12.75;69.76367;987.8917;;;;
2019/11/07 13:49:52;;;;;;;1.9;1;;;;;;;12.5;71.77051;987.9794;;;;
2019/11/07 13:52:17;;;;;;;2;1.2;;;;;;;12.5;70.6084;987.9824;;;;
2019/11/07 13:54:43;;;;;;;3;1.8;;;;;;;12.42;71.80273;987.9913;;;;
2019/11/07 13:57:09;;;;;;;3.2;1.9;;;;;;;12.28;72.87109;988.1155;;;;
2019/11/07 13:59:33;;;;;;;2.8;1.9;;;;;;;12.08;74.93066;988.1511;;;;
2019/11/07 14:01:59;;;;;;;16.8;8.8;;;;;;;12.06;76.17969;988.0933;;;;
2019/11/07 14:04:23;;;;;;;4.4;2.8;;;;;;;11.85;77.91992;988.0811;;;;
2019/11/07 14:06:48;;;;;;;3.5;2.6;;;;;;;11.85;77.51953;988.1456;;;;
2019/11/07 14:09:13;;;;;;;2.8;1.8;;;;;;;11.81;78.36133;988.17;;;;
2019/11/07 14:14:03;;;;;;;2.2;1.6;;;;;;;11.81;79.45313;988.1786;;;;
2019/11/07 14:16:28;;;;;;;2.4;1.3;;;;;;;11.87;79.11914;988.1696;;;;
2019/11/07 14:18:53;;;;;;;3.7;1.7;;;;;;;12.03;79.59668;988.1923;;;;
2019/11/07 14:21:19;;;;;;;2.7;1.2;;;;;;;11.75;80.31543;988.3013;;;;
2019/11/07 14:23:44;;;;;;;1.5;1.1;;;;;;;11.79;81.45801;988.2866;;;;
2019/11/07 14:26:09;;;;;;;1.5;0.9;;;;;;;11.71;81.48828;988.2689;;;;
2019/11/07 14:28:35;;;;;;;2.5;0.9;;;;;;;11.65;81.54688;988.2985;;;;
2019/11/07 14:31:00;;;;;;;1.2;1;;;;;;;11.63;82.03516;988.3392;;;;
2019/11/07 14:33:26;;;;;;;1.5;1;;;;;;;11.6;81.44531;988.2477;;;;
2019/11/07 14:35:51;;;;;;;1.6;1;;;;;;;11.52;82.50781;988.32;;;;
2019/11/07 14:38:16;;;;;;;1.2;1;;;;;;;11.49;82.82422;988.334;;;;
2019/11/07 14:40:41;;;;;;;2.6;1.1;;;;;;;11.39;82.32324;988.3647;;;;
2019/11/07 14:43:06;;;;;;;2.2;1;;;;;;;11.26;83.41211;988.4058;;;;
2019/11/07 14:45:31;;;;;;;2.1;1.2;;;;;;;11.29;83.30273;988.3423;;;;
2019/11/07 14:47:57;;;;;;;2.2;1.4;;;;;;;11.19;83.26074;988.4249;;;;
2019/11/07 14:50:22;;;;;;;2.2;1;;;;;;;11.16;83.11816;988.5159;;;;
2019/11/07 14:52:47;;;;;;;1.8;1;;;;;;;11.22;82.85254;988.516;;;;
2019/11/07 14:55:12;;;;;;;1.2;1;;;;;;;11;83.10742;988.5335;;;;
2019/11/07 14:57:37;;;;;;;1.3;0.9;;;;;;;11.07;83.21387;988.6104;;;;
2019/11/07 15:00:02;;;;;;;2.1;1;;;;;;;10.97;84.4668;988.6934;;;;
2019/11/07 15:02:27;;;;;;;2.8;1.2;;;;;;;10.89;85.72266;988.7177;;;;
2019/11/07 15:04:52;;;;;;;3.1;1.4;;;;;;;10.83;86.23633;988.735;;;;
2019/11/07 15:07:18;;;;;;;2.3;1.2;;;;;;;10.82;86.25977;988.7969;;;;
2019/11/07 15:09:43;;;;;;;3.6;1.5;;;;;;;10.71;86.49023;988.8141;;;;
2019/11/07 15:12:08;;;;;;;1.6;1.3;;;;;;;10.63;86.60938;988.8131;;;;
2019/11/07 15:14:33;;;;;;;1.4;1.1;;;;;;;10.45;86.66699;988.8748;;;;
2019/11/07 15:16:59;;;;;;;2.8;1.1;;;;;;;10.31;87.50586;988.8806;;;;
2019/11/07 15:19:24;;;;;;;2.1;1.3;;;;;;;10.25;87.4834;988.8915;;;;
2019/11/07 15:21:49;;;;;;;3.3;1.4;;;;;;;10.09;87.46387;988.9084;;;;
2019/11/07 15:24:14;;;;;;;2.2;1.6;;;;;;;10.15;87.47656;988.9153;;;;
2019/11/07 15:26:39;;;;;;;2.8;1.2;;;;;;;10.13;87.4502;988.988;;;;
2019/11/07 15:29:04;;;;;;;2.9;1.4;;;;;;;10.11;87.7168;988.9978;;;;
2019/11/07 15:31:29;;;;;;;3.8;1.8;;;;;;;10.08;87.71387;988.9836;;;;
2019/11/07 15:33:54;;;;;;;1.9;1;;;;;;;10.01;87.89355;989.0295;;;;
2019/11/07 15:36:20;;;;;;;2.2;1.2;;;;;;;9.88;88.09668;988.9286;;;;
2019/11/07 15:38:45;;;;;;;3.1;1;;;;;;;9.92;88.41211;988.9744;;;;